sensor_id;sensor_type;location;lat;lon;timestamp;temperature;humidity
46882;DHT22;44112;38.408;-122.974;2022-07-23T00:00:58;28.00;36.90
46882;DHT22;44112;38.408;-122.974;2022-07-23T00:03:25;28.00;39.20
46882;DHT22;44112;38.408;-122.974;2022-07-23T00:05:52;28.00;37.50
46882;DHT22;44112;38.408;-122.974;2022-07-23T00:08:18;27.90;37.70
46882;DHT22;44112;38.408;-122.974;2022-07-23T00:10:46;27.90;37.00
46882;DHT22;44112;38.408;-122.974;2022-07-23T00:13:12;28.00;37.40
46882;DHT22;44112;38.408;-122.974;2022-07-23T00:15:40;28.00;38.80
46882;DHT22;44112;38.408;-122.974;2022-07-23T00:18:06;28.00;38.50
46882;DHT22;44112;38.408;-122.974;2022-07-23T00:20:33;28.10;36.90
46882;DHT22;44112;38.408;-122.974;2022-07-23T00:22:59;28.10;38.20
46882;DHT22;44112;38.408;-122.974;2022-07-23T00:25:27;28.10;36.50
46882;DHT22;44112;38.408;-122.974;2022-07-23T00:27:54;28.10;37.70
46882;DHT22;44112;38.408;-122.974;2022-07-23T00:30:21;28.20;37.40
46882;DHT22;44112;38.408;-122.974;2022-07-23T00:32:50;28.20;35.30
46882;DHT22;44112;38.408;-122.974;2022-07-23T00:35:20;28.10;36.30
46882;DHT22;44112;38.408;-122.974;2022-07-23T00:37:47;28.10;37.30
46882;DHT22;44112;38.408;-122.974;2022-07-23T00:40:14;28.10;35.70
46882;DHT22;44112;38.408;-122.974;2022-07-23T00:42:41;28.10;37.80
46882;DHT22;44112;38.408;-122.974;2022-07-23T00:45:08;28.10;35.00
46882;DHT22;44112;38.408;-122.974;2022-07-23T00:47:35;28.00;37.40
46882;DHT22;44112;38.408;-122.974;2022-07-23T00:50:04;28.00;35.70
46882;DHT22;44112;38.408;-122.974;2022-07-23T00:52:32;28.00;35.90
46882;DHT22;44112;38.408;-122.974;2022-07-23T00:54:59;28.10;36.10
46882;DHT22;44112;38.408;-122.974;2022-07-23T00:57:26;28.10;35.20
46882;DHT22;44112;38.408;-122.974;2022-07-23T00:59:53;28.10;37.00
46882;DHT22;44112;38.408;-122.974;2022-07-23T01:02:20;28.10;36.70
46882;DHT22;44112;38.408;-122.974;2022-07-23T01:04:47;28.10;38.30
46882;DHT22;44112;38.408;-122.974;2022-07-23T01:07:14;28.10;37.40
46882;DHT22;44112;38.408;-122.974;2022-07-23T01:09:40;28.10;37.60
46882;DHT22;44112;38.408;-122.974;2022-07-23T01:12:08;28.10;36.50
46882;DHT22;44112;38.408;-122.974;2022-07-23T01:14:35;28.10;37.60
46882;DHT22;44112;38.408;-122.974;2022-07-23T01:17:02;28.10;38.20
46882;DHT22;44112;38.408;-122.974;2022-07-23T01:19:31;28.10;38.10
46882;DHT22;44112;38.408;-122.974;2022-07-23T01:21:58;28.00;38.50
46882;DHT22;44112;38.408;-122.974;2022-07-23T01:24:27;27.90;37.80
46882;DHT22;44112;38.408;-122.974;2022-07-23T01:26:53;27.90;37.90
46882;DHT22;44112;38.408;-122.974;2022-07-23T01:29:20;27.90;38.50
46882;DHT22;44112;38.408;-122.974;2022-07-23T01:31:47;27.90;38.40
46882;DHT22;44112;38.408;-122.974;2022-07-23T01:34:14;27.90;38.60
46882;DHT22;44112;38.408;-122.974;2022-07-23T01:36:41;27.90;38.60
46882;DHT22;44112;38.408;-122.974;2022-07-23T01:39:08;27.90;38.60
46882;DHT22;44112;38.408;-122.974;2022-07-23T01:41:35;27.90;38.50
46882;DHT22;44112;38.408;-122.974;2022-07-23T01:44:01;27.80;38.00
46882;DHT22;44112;38.408;-122.974;2022-07-23T01:46:28;27.70;37.60
46882;DHT22;44112;38.408;-122.974;2022-07-23T01:48:55;27.80;37.70
46882;DHT22;44112;38.408;-122.974;2022-07-23T01:51:21;27.80;38.10
46882;DHT22;44112;38.408;-122.974;2022-07-23T01:53:48;27.70;38.00
46882;DHT22;44112;38.408;-122.974;2022-07-23T01:56:16;27.70;38.20
46882;DHT22;44112;38.408;-122.974;2022-07-23T01:58:44;27.60;38.10
46882;DHT22;44112;38.408;-122.974;2022-07-23T02:01:11;27.60;38.70
46882;DHT22;44112;38.408;-122.974;2022-07-23T02:03:38;27.60;38.80
46882;DHT22;44112;38.408;-122.974;2022-07-23T02:06:06;27.60;38.80
46882;DHT22;44112;38.408;-122.974;2022-07-23T02:08:32;27.60;38.70
46882;DHT22;44112;38.408;-122.974;2022-07-23T02:11:00;27.60;38.30
46882;DHT22;44112;38.408;-122.974;2022-07-23T02:13:26;27.50;38.50
46882;DHT22;44112;38.408;-122.974;2022-07-23T02:15:55;27.50;38.80
46882;DHT22;44112;38.408;-122.974;2022-07-23T02:18:21;27.50;38.40
46882;DHT22;44112;38.408;-122.974;2022-07-23T02:20:48;27.50;38.60
46882;DHT22;44112;38.408;-122.974;2022-07-23T02:23:14;27.40;38.40
46882;DHT22;44112;38.408;-122.974;2022-07-23T02:25:41;27.40;38.40
46882;DHT22;44112;38.408;-122.974;2022-07-23T02:28:07;27.40;38.70
46882;DHT22;44112;38.408;-122.974;2022-07-23T02:30:34;27.40;38.60
46882;DHT22;44112;38.408;-122.974;2022-07-23T02:33:00;27.30;38.60
46882;DHT22;44112;38.408;-122.974;2022-07-23T02:35:27;27.30;38.80
46882;DHT22;44112;38.408;-122.974;2022-07-23T02:37:53;27.40;39.20
46882;DHT22;44112;38.408;-122.974;2022-07-23T02:40:21;27.30;39.40
46882;DHT22;44112;38.408;-122.974;2022-07-23T02:42:48;27.30;38.90
46882;DHT22;44112;38.408;-122.974;2022-07-23T02:45:14;27.30;39.20
46882;DHT22;44112;38.408;-122.974;2022-07-23T02:47:41;27.30;38.60
46882;DHT22;44112;38.408;-122.974;2022-07-23T02:50:07;27.30;39.00
46882;DHT22;44112;38.408;-122.974;2022-07-23T02:52:34;27.30;39.00
46882;DHT22;44112;38.408;-122.974;2022-07-23T02:55:01;27.20;39.40
46882;DHT22;44112;38.408;-122.974;2022-07-23T02:57:28;27.20;39.70
46882;DHT22;44112;38.408;-122.974;2022-07-23T02:59:54;27.10;39.80
46882;DHT22;44112;38.408;-122.974;2022-07-23T03:02:21;27.10;39.80
46882;DHT22;44112;38.408;-122.974;2022-07-23T03:04:49;27.00;39.70
46882;DHT22;44112;38.408;-122.974;2022-07-23T03:07:17;27.00;39.80
46882;DHT22;44112;38.408;-122.974;2022-07-23T03:09:44;27.00;39.80
46882;DHT22;44112;38.408;-122.974;2022-07-23T03:12:10;27.00;39.60
46882;DHT22;44112;38.408;-122.974;2022-07-23T03:14:37;27.10;39.50
46882;DHT22;44112;38.408;-122.974;2022-07-23T03:17:03;27.00;39.10
46882;DHT22;44112;38.408;-122.974;2022-07-23T03:19:31;27.00;39.30
46882;DHT22;44112;38.408;-122.974;2022-07-23T03:21:57;27.00;39.30
46882;DHT22;44112;38.408;-122.974;2022-07-23T03:24:24;27.00;39.10
46882;DHT22;44112;38.408;-122.974;2022-07-23T03:27:11;27.00;39.20
46882;DHT22;44112;38.408;-122.974;2022-07-23T03:29:38;27.00;38.60
46882;DHT22;44112;38.408;-122.974;2022-07-23T03:32:04;26.90;38.90
46882;DHT22;44112;38.408;-122.974;2022-07-23T03:34:31;26.90;39.20
46882;DHT22;44112;38.408;-122.974;2022-07-23T03:36:58;26.90;39.30
46882;DHT22;44112;38.408;-122.974;2022-07-23T03:39:24;26.80;39.30
46882;DHT22;44112;38.408;-122.974;2022-07-23T03:41:52;26.80;38.70
46882;DHT22;44112;38.408;-122.974;2022-07-23T03:44:19;26.70;38.90
46882;DHT22;44112;38.408;-122.974;2022-07-23T03:46:45;26.70;38.80
46882;DHT22;44112;38.408;-122.974;2022-07-23T03:49:12;26.70;37.80
46882;DHT22;44112;38.408;-122.974;2022-07-23T03:51:39;26.70;38.10
46882;DHT22;44112;38.408;-122.974;2022-07-23T03:54:05;26.70;37.90
46882;DHT22;44112;38.408;-122.974;2022-07-23T03:56:32;26.70;37.90
46882;DHT22;44112;38.408;-122.974;2022-07-23T03:58:58;26.70;38.30
46882;DHT22;44112;38.408;-122.974;2022-07-23T04:01:25;26.70;39.20
46882;DHT22;44112;38.408;-122.974;2022-07-23T04:03:51;26.70;39.50
46882;DHT22;44112;38.408;-122.974;2022-07-23T04:06:18;26.70;39.10
46882;DHT22;44112;38.408;-122.974;2022-07-23T04:08:45;26.80;39.80
46882;DHT22;44112;38.408;-122.974;2022-07-23T04:11:11;26.70;39.70
46882;DHT22;44112;38.408;-122.974;2022-07-23T04:13:38;26.70;40.10
46882;DHT22;44112;38.408;-122.974;2022-07-23T04:16:04;26.70;39.80
46882;DHT22;44112;38.408;-122.974;2022-07-23T04:18:32;26.70;39.80
46882;DHT22;44112;38.408;-122.974;2022-07-23T04:20:58;26.70;39.10
46882;DHT22;44112;38.408;-122.974;2022-07-23T04:23:25;26.70;39.40
46882;DHT22;44112;38.408;-122.974;2022-07-23T04:25:52;26.70;39.20
46882;DHT22;44112;38.408;-122.974;2022-07-23T04:28:18;26.70;39.20
46882;DHT22;44112;38.408;-122.974;2022-07-23T04:30:45;26.70;38.70
46882;DHT22;44112;38.408;-122.974;2022-07-23T04:33:12;26.70;39.80
46882;DHT22;44112;38.408;-122.974;2022-07-23T04:35:38;26.60;39.40
46882;DHT22;44112;38.408;-122.974;2022-07-23T04:38:05;26.50;39.30
46882;DHT22;44112;38.408;-122.974;2022-07-23T04:40:32;26.50;39.10
46882;DHT22;44112;38.408;-122.974;2022-07-23T04:42:58;26.40;38.90
46882;DHT22;44112;38.408;-122.974;2022-07-23T04:45:25;26.40;38.90
46882;DHT22;44112;38.408;-122.974;2022-07-23T04:47:53;26.30;38.80
46882;DHT22;44112;38.408;-122.974;2022-07-23T04:50:20;26.30;39.00
46882;DHT22;44112;38.408;-122.974;2022-07-23T04:52:50;26.30;39.00
46882;DHT22;44112;38.408;-122.974;2022-07-23T04:55:17;26.30;39.10
46882;DHT22;44112;38.408;-122.974;2022-07-23T04:57:44;26.20;39.00
46882;DHT22;44112;38.408;-122.974;2022-07-23T05:00:12;26.20;39.70
46882;DHT22;44112;38.408;-122.974;2022-07-23T05:02:38;26.30;39.60
46882;DHT22;44112;38.408;-122.974;2022-07-23T05:05:06;26.30;39.50
46882;DHT22;44112;38.408;-122.974;2022-07-23T05:07:32;26.30;39.60
46882;DHT22;44112;38.408;-122.974;2022-07-23T05:09:59;26.30;39.60
46882;DHT22;44112;38.408;-122.974;2022-07-23T05:12:25;26.30;39.50
46882;DHT22;44112;38.408;-122.974;2022-07-23T05:14:53;26.30;39.70
46882;DHT22;44112;38.408;-122.974;2022-07-23T05:17:19;26.30;39.60
46882;DHT22;44112;38.408;-122.974;2022-07-23T05:19:46;26.20;39.60
46882;DHT22;44112;38.408;-122.974;2022-07-23T05:22:13;26.20;39.70
46882;DHT22;44112;38.408;-122.974;2022-07-23T05:24:40;26.10;39.40
46882;DHT22;44112;38.408;-122.974;2022-07-23T05:27:07;26.10;39.50
46882;DHT22;44112;38.408;-122.974;2022-07-23T05:29:33;26.00;39.40
46882;DHT22;44112;38.408;-122.974;2022-07-23T05:32:00;26.00;39.50
46882;DHT22;44112;38.408;-122.974;2022-07-23T05:34:27;26.00;39.70
46882;DHT22;44112;38.408;-122.974;2022-07-23T05:36:54;26.00;38.30
46882;DHT22;44112;38.408;-122.974;2022-07-23T05:39:20;25.90;38.90
46882;DHT22;44112;38.408;-122.974;2022-07-23T05:41:47;26.00;38.60
46882;DHT22;44112;38.408;-122.974;2022-07-23T05:44:13;26.00;38.30
46882;DHT22;44112;38.408;-122.974;2022-07-23T05:46:40;25.90;38.70
46882;DHT22;44112;38.408;-122.974;2022-07-23T05:49:08;25.90;38.60
46882;DHT22;44112;38.408;-122.974;2022-07-23T05:51:34;25.90;38.10
46882;DHT22;44112;38.408;-122.974;2022-07-23T05:54:01;25.90;38.50
46882;DHT22;44112;38.408;-122.974;2022-07-23T05:56:27;26.00;38.80
46882;DHT22;44112;38.408;-122.974;2022-07-23T05:58:54;26.00;39.10
46882;DHT22;44112;38.408;-122.974;2022-07-23T06:01:21;25.90;39.00
46882;DHT22;44112;38.408;-122.974;2022-07-23T06:03:47;26.00;39.40
46882;DHT22;44112;38.408;-122.974;2022-07-23T06:06:14;25.90;39.30
46882;DHT22;44112;38.408;-122.974;2022-07-23T06:08:41;25.90;39.60
46882;DHT22;44112;38.408;-122.974;2022-07-23T06:11:07;25.90;39.80
46882;DHT22;44112;38.408;-122.974;2022-07-23T06:13:34;25.90;39.90
46882;DHT22;44112;38.408;-122.974;2022-07-23T06:16:01;25.90;39.90
46882;DHT22;44112;38.408;-122.974;2022-07-23T06:18:27;25.90;40.00
46882;DHT22;44112;38.408;-122.974;2022-07-23T06:20:54;25.90;40.10
46882;DHT22;44112;38.408;-122.974;2022-07-23T06:23:21;26.00;40.10
46882;DHT22;44112;38.408;-122.974;2022-07-23T06:25:48;26.00;40.10
46882;DHT22;44112;38.408;-122.974;2022-07-23T06:28:15;26.00;40.10
46882;DHT22;44112;38.408;-122.974;2022-07-23T06:30:41;26.00;40.10
46882;DHT22;44112;38.408;-122.974;2022-07-23T06:33:08;25.90;39.90
46882;DHT22;44112;38.408;-122.974;2022-07-23T06:35:36;25.90;40.00
46882;DHT22;44112;38.408;-122.974;2022-07-23T06:38:02;25.90;40.10
46882;DHT22;44112;38.408;-122.974;2022-07-23T06:40:29;25.80;40.00
46882;DHT22;44112;38.408;-122.974;2022-07-23T06:42:56;25.80;40.00
46882;DHT22;44112;38.408;-122.974;2022-07-23T06:45:23;25.70;40.20
46882;DHT22;44112;38.408;-122.974;2022-07-23T06:47:49;25.70;40.20
46882;DHT22;44112;38.408;-122.974;2022-07-23T06:50:17;25.70;40.20
46882;DHT22;44112;38.408;-122.974;2022-07-23T06:52:43;25.70;40.10
46882;DHT22;44112;38.408;-122.974;2022-07-23T06:55:10;25.70;40.10
46882;DHT22;44112;38.408;-122.974;2022-07-23T06:57:37;25.80;40.20
46882;DHT22;44112;38.408;-122.974;2022-07-23T07:00:04;25.80;40.00
46882;DHT22;44112;38.408;-122.974;2022-07-23T07:02:32;25.80;40.10
46882;DHT22;44112;38.408;-122.974;2022-07-23T07:04:59;25.80;40.00
46882;DHT22;44112;38.408;-122.974;2022-07-23T07:07:25;25.80;40.10
46882;DHT22;44112;38.408;-122.974;2022-07-23T07:09:52;25.80;40.10
46882;DHT22;44112;38.408;-122.974;2022-07-23T07:12:20;25.70;40.20
46882;DHT22;44112;38.408;-122.974;2022-07-23T07:14:46;25.70;40.30
46882;DHT22;44112;38.408;-122.974;2022-07-23T07:17:13;25.60;40.10
46882;DHT22;44112;38.408;-122.974;2022-07-23T07:19:39;25.60;39.90
46882;DHT22;44112;38.408;-122.974;2022-07-23T07:22:06;25.60;40.20
46882;DHT22;44112;38.408;-122.974;2022-07-23T07:24:32;25.60;40.10
46882;DHT22;44112;38.408;-122.974;2022-07-23T07:27:00;25.70;40.00
46882;DHT22;44112;38.408;-122.974;2022-07-23T07:29:26;25.70;40.00
46882;DHT22;44112;38.408;-122.974;2022-07-23T07:31:55;25.70;39.90
46882;DHT22;44112;38.408;-122.974;2022-07-23T07:34:22;25.70;40.00
46882;DHT22;44112;38.408;-122.974;2022-07-23T07:36:48;25.70;40.00
46882;DHT22;44112;38.408;-122.974;2022-07-23T07:39:15;25.70;40.70
46882;DHT22;44112;38.408;-122.974;2022-07-23T07:41:42;25.60;40.20
46882;DHT22;44112;38.408;-122.974;2022-07-23T07:44:09;25.60;40.20
46882;DHT22;44112;38.408;-122.974;2022-07-23T07:46:36;25.60;40.20
46882;DHT22;44112;38.408;-122.974;2022-07-23T07:49:02;25.50;40.20
46882;DHT22;44112;38.408;-122.974;2022-07-23T07:51:30;25.50;40.20
46882;DHT22;44112;38.408;-122.974;2022-07-23T07:53:58;25.50;40.30
46882;DHT22;44112;38.408;-122.974;2022-07-23T07:56:25;25.50;40.30
46882;DHT22;44112;38.408;-122.974;2022-07-23T07:58:52;25.50;40.20
46882;DHT22;44112;38.408;-122.974;2022-07-23T08:01:19;25.50;40.20
46882;DHT22;44112;38.408;-122.974;2022-07-23T08:03:46;25.50;40.30
46882;DHT22;44112;38.408;-122.974;2022-07-23T08:06:12;25.50;40.20
46882;DHT22;44112;38.408;-122.974;2022-07-23T08:08:39;25.50;40.20
46882;DHT22;44112;38.408;-122.974;2022-07-23T08:11:06;25.50;40.30
46882;DHT22;44112;38.408;-122.974;2022-07-23T08:13:33;25.50;40.30
46882;DHT22;44112;38.408;-122.974;2022-07-23T08:16:00;25.40;40.30
46882;DHT22;44112;38.408;-122.974;2022-07-23T08:18:27;25.40;40.40
46882;DHT22;44112;38.408;-122.974;2022-07-23T08:20:53;25.40;40.40
46882;DHT22;44112;38.408;-122.974;2022-07-23T08:23:20;25.40;40.40
46882;DHT22;44112;38.408;-122.974;2022-07-23T08:25:47;25.20;40.10
46882;DHT22;44112;38.408;-122.974;2022-07-23T08:28:14;25.10;40.60
46882;DHT22;44112;38.408;-122.974;2022-07-23T08:30:43;25.10;40.40
46882;DHT22;44112;38.408;-122.974;2022-07-23T08:33:12;25.20;40.50
46882;DHT22;44112;38.408;-122.974;2022-07-23T08:35:44;25.20;40.30
46882;DHT22;44112;38.408;-122.974;2022-07-23T08:38:14;25.20;40.10
46882;DHT22;44112;38.408;-122.974;2022-07-23T08:40:47;25.30;40.10
46882;DHT22;44112;38.408;-122.974;2022-07-23T08:43:16;25.20;40.10
46882;DHT22;44112;38.408;-122.974;2022-07-23T08:45:44;25.20;40.20
46882;DHT22;44112;38.408;-122.974;2022-07-23T08:48:13;25.20;40.20
46882;DHT22;44112;38.408;-122.974;2022-07-23T08:50:45;25.20;40.30
46882;DHT22;44112;38.408;-122.974;2022-07-23T08:53:12;25.20;40.30
46882;DHT22;44112;38.408;-122.974;2022-07-23T08:55:39;25.20;40.40
46882;DHT22;44112;38.408;-122.974;2022-07-23T08:58:06;25.20;40.40
46882;DHT22;44112;38.408;-122.974;2022-07-23T09:00:32;25.10;40.40
46882;DHT22;44112;38.408;-122.974;2022-07-23T09:02:59;25.10;40.40
46882;DHT22;44112;38.408;-122.974;2022-07-23T09:05:25;25.10;40.40
46882;DHT22;44112;38.408;-122.974;2022-07-23T09:08:06;25.00;40.40
46882;DHT22;44112;38.408;-122.974;2022-07-23T09:10:47;25.10;40.40
46882;DHT22;44112;38.408;-122.974;2022-07-23T09:16:14;25.00;40.50
46882;DHT22;44112;38.408;-122.974;2022-07-23T09:19:00;25.00;40.50
46882;DHT22;44112;38.408;-122.974;2022-07-23T09:21:29;25.00;40.60
46882;DHT22;44112;38.408;-122.974;2022-07-23T09:24:01;25.00;40.60
46882;DHT22;44112;38.408;-122.974;2022-07-23T09:26:30;25.00;40.70
46882;DHT22;44112;38.408;-122.974;2022-07-23T09:34:24;24.70;41.00
46882;DHT22;44112;38.408;-122.974;2022-07-23T09:36:53;24.60;41.00
46882;DHT22;44112;38.408;-122.974;2022-07-23T09:39:32;24.60;41.00
46882;DHT22;44112;38.408;-122.974;2022-07-23T09:42:19;24.60;41.10
46882;DHT22;44112;38.408;-122.974;2022-07-23T09:44:50;24.60;41.40
46882;DHT22;44112;38.408;-122.974;2022-07-23T09:47:18;24.60;41.20
46882;DHT22;44112;38.408;-122.974;2022-07-23T09:50:05;24.50;41.10
46882;DHT22;44112;38.408;-122.974;2022-07-23T09:52:44;24.50;41.20
46882;DHT22;44112;38.408;-122.974;2022-07-23T09:55:13;24.40;41.20
46882;DHT22;44112;38.408;-122.974;2022-07-23T09:57:44;24.40;41.30
46882;DHT22;44112;38.408;-122.974;2022-07-23T10:00:12;24.40;41.50
46882;DHT22;44112;38.408;-122.974;2022-07-23T10:02:39;24.30;41.50
46882;DHT22;44112;38.408;-122.974;2022-07-23T10:05:08;24.30;41.50
46882;DHT22;44112;38.408;-122.974;2022-07-23T10:07:37;24.30;41.50
46882;DHT22;44112;38.408;-122.974;2022-07-23T10:10:06;24.20;41.40
46882;DHT22;44112;38.408;-122.974;2022-07-23T10:12:33;24.20;41.60
46882;DHT22;44112;38.408;-122.974;2022-07-23T10:15:04;24.10;41.60
46882;DHT22;44112;38.408;-122.974;2022-07-23T10:17:32;24.10;41.70
46882;DHT22;44112;38.408;-122.974;2022-07-23T10:20:00;24.10;41.80
46882;DHT22;44112;38.408;-122.974;2022-07-23T10:22:49;24.10;41.90
46882;DHT22;44112;38.408;-122.974;2022-07-23T10:29:15;24.10;41.80
46882;DHT22;44112;38.408;-122.974;2022-07-23T10:31:52;24.00;41.90
46882;DHT22;44112;38.408;-122.974;2022-07-23T10:37:46;24.00;42.80
46882;DHT22;44112;38.408;-122.974;2022-07-23T10:42:39;23.90;42.30
46882;DHT22;44112;38.408;-122.974;2022-07-23T10:45:35;23.80;42.40
46882;DHT22;44112;38.408;-122.974;2022-07-23T10:50:41;23.80;42.50
46882;DHT22;44112;38.408;-122.974;2022-07-23T10:55:44;23.70;42.50
46882;DHT22;44112;38.408;-122.974;2022-07-23T10:58:11;23.80;42.60
46882;DHT22;44112;38.408;-122.974;2022-07-23T11:00:43;23.70;42.60
46882;DHT22;44112;38.408;-122.974;2022-07-23T11:03:31;23.70;42.70
46882;DHT22;44112;38.408;-122.974;2022-07-23T11:05:58;23.70;42.90
46882;DHT22;44112;38.408;-122.974;2022-07-23T11:08:25;23.60;42.90
46882;DHT22;44112;38.408;-122.974;2022-07-23T11:11:07;23.60;43.00
46882;DHT22;44112;38.408;-122.974;2022-07-23T11:13:42;23.60;43.00
46882;DHT22;44112;38.408;-122.974;2022-07-23T11:16:22;23.50;43.00
46882;DHT22;44112;38.408;-122.974;2022-07-23T11:24:16;23.50;43.30
46882;DHT22;44112;38.408;-122.974;2022-07-23T11:27:00;23.50;43.30
46882;DHT22;44112;38.408;-122.974;2022-07-23T11:37:03;23.40;43.50
46882;DHT22;44112;38.408;-122.974;2022-07-23T11:39:33;23.30;43.50
46882;DHT22;44112;38.408;-122.974;2022-07-23T11:42:03;23.30;43.50
46882;DHT22;44112;38.408;-122.974;2022-07-23T11:44:35;23.30;43.50
46882;DHT22;44112;38.408;-122.974;2022-07-23T11:47:05;23.20;43.50
46882;DHT22;44112;38.408;-122.974;2022-07-23T11:49:32;23.20;43.50
46882;DHT22;44112;38.408;-122.974;2022-07-23T11:52:13;23.20;43.60
46882;DHT22;44112;38.408;-122.974;2022-07-23T11:54:56;23.20;43.70
46882;DHT22;44112;38.408;-122.974;2022-07-23T11:57:31;23.10;43.70
46882;DHT22;44112;38.408;-122.974;2022-07-23T12:00:08;23.10;43.60
46882;DHT22;44112;38.408;-122.974;2022-07-23T12:02:40;23.10;43.70
46882;DHT22;44112;38.408;-122.974;2022-07-23T12:05:12;23.10;43.70
46882;DHT22;44112;38.408;-122.974;2022-07-23T12:07:40;23.10;43.90
46882;DHT22;44112;38.408;-122.974;2022-07-23T12:10:16;23.00;43.90
46882;DHT22;44112;38.408;-122.974;2022-07-23T12:15:35;23.00;44.00
46882;DHT22;44112;38.408;-122.974;2022-07-23T12:18:06;22.90;44.00
46882;DHT22;44112;38.408;-122.974;2022-07-23T12:20:36;22.90;44.00
46882;DHT22;44112;38.408;-122.974;2022-07-23T12:23:05;22.90;44.10
46882;DHT22;44112;38.408;-122.974;2022-07-23T12:25:40;22.80;44.00
46882;DHT22;44112;38.408;-122.974;2022-07-23T12:28:18;22.90;44.20
46882;DHT22;44112;38.408;-122.974;2022-07-23T12:30:47;22.90;44.20
46882;DHT22;44112;38.408;-122.974;2022-07-23T12:33:21;22.90;44.20
46882;DHT22;44112;38.408;-122.974;2022-07-23T12:35:49;22.80;44.30
46882;DHT22;44112;38.408;-122.974;2022-07-23T12:38:17;22.70;44.30
46882;DHT22;44112;38.408;-122.974;2022-07-23T12:43:26;22.70;44.40
46882;DHT22;44112;38.408;-122.974;2022-07-23T12:46:04;22.70;44.60
46882;DHT22;44112;38.408;-122.974;2022-07-23T12:48:50;22.70;44.50
46882;DHT22;44112;38.408;-122.974;2022-07-23T12:51:23;22.60;44.50
46882;DHT22;44112;38.408;-122.974;2022-07-23T12:53:52;22.60;44.80
46882;DHT22;44112;38.408;-122.974;2022-07-23T12:56:30;22.60;44.20
46882;DHT22;44112;38.408;-122.974;2022-07-23T12:59:15;22.60;44.20
46882;DHT22;44112;38.408;-122.974;2022-07-23T13:01:43;22.60;44.40
46882;DHT22;44112;38.408;-122.974;2022-07-23T13:04:20;22.60;44.40
46882;DHT22;44112;38.408;-122.974;2022-07-23T13:06:56;22.60;44.50
46882;DHT22;44112;38.408;-122.974;2022-07-23T13:09:25;22.50;45.00
46882;DHT22;44112;38.408;-122.974;2022-07-23T13:11:54;22.40;44.50
46882;DHT22;44112;38.408;-122.974;2022-07-23T13:14:22;22.40;44.50
46882;DHT22;44112;38.408;-122.974;2022-07-23T13:16:50;22.40;44.60
46882;DHT22;44112;38.408;-122.974;2022-07-23T13:19:18;22.40;44.70
46882;DHT22;44112;38.408;-122.974;2022-07-23T13:21:48;22.40;44.60
46882;DHT22;44112;38.408;-122.974;2022-07-23T13:24:15;22.40;44.50
46882;DHT22;44112;38.408;-122.974;2022-07-23T13:26:42;22.40;44.50
46882;DHT22;44112;38.408;-122.974;2022-07-23T13:29:11;22.40;44.50
46882;DHT22;44112;38.408;-122.974;2022-07-23T13:31:38;22.30;44.60
46882;DHT22;44112;38.408;-122.974;2022-07-23T13:34:05;22.30;44.80
46882;DHT22;44112;38.408;-122.974;2022-07-23T13:36:31;22.30;44.90
46882;DHT22;44112;38.408;-122.974;2022-07-23T13:38:58;22.30;44.90
46882;DHT22;44112;38.408;-122.974;2022-07-23T13:41:24;22.20;44.90
46882;DHT22;44112;38.408;-122.974;2022-07-23T13:43:51;22.20;44.90
46882;DHT22;44112;38.408;-122.974;2022-07-23T13:46:18;22.20;45.00
46882;DHT22;44112;38.408;-122.974;2022-07-23T13:48:45;22.10;44.90
46882;DHT22;44112;38.408;-122.974;2022-07-23T13:51:12;22.10;45.00
46882;DHT22;44112;38.408;-122.974;2022-07-23T13:53:39;22.10;44.90
46882;DHT22;44112;38.408;-122.974;2022-07-23T13:56:06;22.20;44.90
46882;DHT22;44112;38.408;-122.974;2022-07-23T13:58:33;22.20;44.80
46882;DHT22;44112;38.408;-122.974;2022-07-23T14:00:59;22.20;44.80
46882;DHT22;44112;38.408;-122.974;2022-07-23T14:03:26;22.10;45.00
46882;DHT22;44112;38.408;-122.974;2022-07-23T14:05:53;22.10;45.00
46882;DHT22;44112;38.408;-122.974;2022-07-23T14:08:20;22.00;45.00
46882;DHT22;44112;38.408;-122.974;2022-07-23T14:10:47;21.90;45.00
46882;DHT22;44112;38.408;-122.974;2022-07-23T14:13:14;22.00;45.00
46882;DHT22;44112;38.408;-122.974;2022-07-23T14:15:40;21.90;45.00
46882;DHT22;44112;38.408;-122.974;2022-07-23T14:18:07;22.00;45.00
46882;DHT22;44112;38.408;-122.974;2022-07-23T14:20:35;21.90;45.00
46882;DHT22;44112;38.408;-122.974;2022-07-23T14:23:01;21.90;45.00
46882;DHT22;44112;38.408;-122.974;2022-07-23T14:25:29;21.80;45.00
46882;DHT22;44112;38.408;-122.974;2022-07-23T14:27:55;21.80;45.10
46882;DHT22;44112;38.408;-122.974;2022-07-23T14:30:22;21.80;45.00
46882;DHT22;44112;38.408;-122.974;2022-07-23T14:32:50;21.80;45.10
46882;DHT22;44112;38.408;-122.974;2022-07-23T14:35:17;21.80;45.10
46882;DHT22;44112;38.408;-122.974;2022-07-23T14:37:45;21.80;45.20
46882;DHT22;44112;38.408;-122.974;2022-07-23T14:40:12;21.70;45.30
46882;DHT22;44112;38.408;-122.974;2022-07-23T14:42:39;21.70;45.30
46882;DHT22;44112;38.408;-122.974;2022-07-23T14:45:06;21.80;45.20
46882;DHT22;44112;38.408;-122.974;2022-07-23T14:47:33;21.80;45.20
46882;DHT22;44112;38.408;-122.974;2022-07-23T14:50:00;21.90;45.20
46882;DHT22;44112;38.408;-122.974;2022-07-23T14:52:27;21.90;45.00
46882;DHT22;44112;38.408;-122.974;2022-07-23T14:54:54;21.90;45.10
46882;DHT22;44112;38.408;-122.974;2022-07-23T14:57:21;21.90;45.10
46882;DHT22;44112;38.408;-122.974;2022-07-23T14:59:47;21.90;45.10
46882;DHT22;44112;38.408;-122.974;2022-07-23T15:02:14;21.90;45.10
46882;DHT22;44112;38.408;-122.974;2022-07-23T15:04:41;21.90;45.00
46882;DHT22;44112;38.408;-122.974;2022-07-23T15:07:08;21.90;45.00
46882;DHT22;44112;38.408;-122.974;2022-07-23T15:09:35;21.90;45.10
46882;DHT22;44112;38.408;-122.974;2022-07-23T15:12:02;21.90;46.40
46882;DHT22;44112;38.408;-122.974;2022-07-23T15:14:29;21.90;47.00
46882;DHT22;44112;38.408;-122.974;2022-07-23T15:16:56;21.90;47.10
46882;DHT22;44112;38.408;-122.974;2022-07-23T15:19:24;21.90;47.00
46882;DHT22;44112;38.408;-122.974;2022-07-23T15:21:50;21.90;46.80
46882;DHT22;44112;38.408;-122.974;2022-07-23T15:24:17;21.80;46.70
46882;DHT22;44112;38.408;-122.974;2022-07-23T15:26:44;21.80;46.60
46882;DHT22;44112;38.408;-122.974;2022-07-23T15:29:11;21.80;46.60
46882;DHT22;44112;38.408;-122.974;2022-07-23T15:31:38;21.80;46.60
46882;DHT22;44112;38.408;-122.974;2022-07-23T15:34:05;21.80;46.70
46882;DHT22;44112;38.408;-122.974;2022-07-23T15:36:31;21.80;46.70